Flight Track Log - Related Links

Times and Time Zones

All times are in EDT time to prevent confusion due to time zone crossing. See the SLI2070 flight status page for this flight to view local times or setup timezone preferences in your user account.

Time Position Orientation Groundspeed Altitude Reporting Facility
EDT Latitude Longitude Course Direction KTS MPH feet Rate Location/Type
Wed 11:31:00 AM 20.7954 -102.1261 296° West  Level Estimated
Wed 11:32:00 AM 20.8384 -102.2255 295° West  Level Estimated
Wed 11:33:00 AM 20.8813 -102.3250 295° West  Level Estimated
Wed 11:34:00 AM 20.9241 -102.4245 295° West  Level Estimated
Wed 11:35:00 AM 20.9669 -102.5240 295° West  Level Estimated
Wed 11:36:00 AM 21.0096 -102.6237 295° West  Level Estimated
Wed 11:37:00 AM 21.0523 -102.7234 295° West  Level Estimated
Wed 11:38:00 AM 21.0949 -102.8231 295° West  Level Estimated
Wed 11:39:00 AM 21.1374 -102.9229 295° West  Level Estimated
Wed 11:40:00 AM 21.1799 -103.0228 295° West  Level Estimated
Wed 11:41:00 AM 21.2223 -103.1227 295° West  Level Estimated
Wed 11:42:00 AM 21.2647 -103.2227 294° West  Level Estimated
Wed 11:43:00 AM 21.3070 -103.3227 294° West  Level Estimated
Wed 11:44:00 AM 21.3493 -103.4228 294° West  Level Estimated
Wed 11:45:00 AM 21.3915 -103.5230 294° West  Level Estimated
Wed 11:46:00 AM 21.4336 -103.6232 294° West  Level Estimated
Wed 11:47:00 AM 21.4757 -103.7234 294° West  Level Estimated
Wed 11:48:00 AM 21.5177 -103.8238 294° West  Level Estimated
Wed 11:49:00 AM 21.5596 -103.9241 294° West  Level Estimated
Wed 11:50:00 AM 21.6015 -104.0246 294° West  Level Estimated
Wed 11:51:00 AM 21.6434 -104.1251 294° West  Level Estimated
Wed 11:52:00 AM 21.6851 -104.2256 294° West  Level Estimated
Wed 11:53:00 AM 21.7268 -104.3263 294° West  Level Estimated
Wed 11:54:00 AM 21.7685 -104.4269 294° West  Level Estimated
Wed 11:55:00 AM 21.8101 -104.5277 294° West  Level Estimated
Wed 11:56:00 AM 21.8516 -104.6285 294° West  Level Estimated
Wed 11:57:00 AM 21.8931 -104.7293 294° West  Level Estimated
Wed 11:58:00 AM 21.9345 -104.8302 294° West  Level Estimated
Wed 11:59:00 AM 21.9758 -104.9312 294° West  Level Estimated
Wed 12:00:00 PM 22.0171 -105.0322 294° West  Level Estimated
Wed 12:01:00 PM 22.0583 -105.1333 294° West  Level Estimated
Wed 12:02:00 PM 22.0995 -105.2344 294° West  Level Estimated
Wed 12:03:00 PM 22.1406 -105.3356 294° West  Level Estimated
Wed 12:04:00 PM 22.1816 -105.4369 294° West  Level Estimated
Wed 12:05:00 PM 22.2226 -105.5382 294° West  Level Estimated
Wed 12:06:00 PM 22.2635 -105.6396 294° West  Level Estimated
Wed 12:07:00 PM 22.3044 -105.7410 294° West  Level Estimated
Wed 12:08:00 PM 22.3451 -105.8425 293° West  Level Estimated
Wed 12:09:00 PM 22.3859 -105.9441 293° West  Level Estimated
Wed 12:10:00 PM 22.4265 -106.0457 293° West  Level Estimated
Wed 12:11:00 PM 22.4671 -106.1474 293° West  Level Estimated
Wed 12:12:00 PM 22.5076 -106.2491 293° West  Level Estimated
Wed 12:13:00 PM 22.5481 -106.3509 293° West  Level Estimated
Wed 12:14:00 PM 22.5885 -106.4528 293° West  Level Estimated
Wed 12:15:00 PM 22.6289 -106.5547 293° West  Level Estimated
Wed 12:16:00 PM 22.6691 -106.6566 293° West  Level Estimated
Wed 12:17:00 PM 22.7093 -106.7587 293° West  Level Estimated
Wed 12:18:00 PM 22.7495 -106.8608 293° West  Level Estimated
Wed 12:19:00 PM 22.7896 -106.9629 293° West  Level Estimated
Wed 12:20:00 PM 22.8296 -107.0651 293° West  Level Estimated
Wed 12:21:00 PM 22.8695 -107.1674 293° West  Level Estimated
Wed 12:22:00 PM 22.9094 -107.2697 293° West  Level Estimated
Wed 12:23:00 PM 22.9492 -107.3721 293° West  Level Estimated
Wed 12:24:00 PM 22.9890 -107.4746 293° West  Level Estimated
Wed 12:25:00 PM 23.0287 -107.5771 293° West  Level Estimated
Wed 12:26:00 PM 23.0683 -107.6797 293° West  Level Estimated
Wed 12:27:00 PM 23.1078 -107.7823 293° West  Level Estimated
Wed 12:28:00 PM 23.1473 -107.8850 293° West  Level Estimated
Wed 12:29:00 PM 23.1867 -107.9878 293° West  Level Estimated
Wed 12:30:00 PM 23.2261 -108.0906 293° West  Level Estimated
Wed 12:31:00 PM 23.2654 -108.1935 293° West  Level Estimated
Wed 12:32:00 PM 23.3046 -108.2964 293° West  Level Estimated
Wed 12:33:00 PM 23.3438 -108.3994 293° West  Level Estimated
Wed 12:34:00 PM 23.3828 -108.5025 292° West  Level Estimated
Wed 12:35:00 PM 23.4219 -108.6056 292° West  Level Estimated
Wed 12:36:00 PM 23.4608 -108.7088 292° West  Level Estimated
Wed 12:37:00 PM 23.4997 -108.8120 292° West  Level Estimated
Wed 12:38:00 PM 23.5385 -108.9153 292° West  Level Estimated
Wed 12:39:00 PM 23.5773 -109.0187 292° West  Level Estimated
Wed 12:40:00 PM 23.6159 -109.1221 292° West  Level Estimated
Wed 12:41:00 PM 23.6546 -109.2256 292° West  Level Estimated
Wed 12:42:00 PM 23.6931 -109.3291 292° West  Level Estimated
Wed 12:43:00 PM 23.7316 -109.4327 292° West  Level Estimated
Wed 12:44:00 PM 23.7700 -109.5364 292° West  Level Estimated
Wed 12:45:00 PM 23.8083 -109.6401 292° West  Level Estimated
Wed 12:46:00 PM 23.8466 -109.7439 292° West  Level Estimated
Wed 12:47:00 PM 23.8848 -109.8478 292° West  Level Estimated
Wed 12:48:00 PM 23.9229 -109.9517 292° West  Level Estimated
Wed 12:49:00 PM 23.9609 -110.0557 292° West  Level Estimated
Wed 12:50:00 PM 23.9989 -110.1597 292° West  Level Estimated
Wed 12:51:00 PM 24.0368 -110.2638 292° West  Level Estimated
Wed 12:52:00 PM 24.0727 -110.3625 292° West  Level Estimated
Wed 12:53:00 PM 24.0727 -110.3625 49° Northeast  Level Estimated
Wed 12:54:00 PM 24.0727 -110.3625 49° Northeast  Level Estimated
Wed 12:55:00 PM 24.0727 -110.3625 49° Northeast  Level Estimated
Wed 12:56:00 PM 24.0727 -110.3625 49° Northeast  Level Estimated
Wed 12:57:00 PM 24.0727 -110.3625 49° Northeast  Level Estimated
Wed 12:58:00 PM 24.0727 -110.3625 49° Northeast  Level Estimated
Wed 12:59:00 PM 24.0727 -110.3625 49° Northeast  Level Estimated
Wed 01:00:00 PM 24.0727 -110.3625 49° Northeast  Level Estimated
Wed 01:01:00 PM 24.0727 -110.3625 49° Northeast  Level Estimated
Wed 01:02:00 PM 24.0727 -110.3625 49° Northeast  Level Estimated
Wed 01:03:00 PM 24.0727 -110.3625 49° Northeast  Level Estimated
Wed 01:04:00 PM 24.0727 -110.3625 49° Northeast  Level Estimated
Wed 01:05:00 PM 24.0727 -110.3625 49° Northeast  Level Estimated
Wed 01:06:00 PM 24.0727 -110.3625 49° Northeast  Level Estimated
Wed 01:07:00 PM 24.0727 -110.3625 49° Northeast  Level Estimated
Wed 01:08:00 PM 24.0727 -110.3625 49° Northeast  Level Estimated

Login

Don't have an account? Register now (free) for customized features, flight alerts, and more!